createdAt,value
2018-12-23T00:00:21.917Z,95488.12
2018-12-23T00:02:51.874Z,95484.66
2018-12-23T00:05:21.235Z,95496.04
2018-12-23T00:07:50.745Z,95492.11
2018-12-23T00:10:20.508Z,95492.53
2018-12-23T00:12:49.863Z,95496.70
2018-12-23T00:15:19.384Z,95507.36
2018-12-23T00:17:49.326Z,95505.13
2018-12-23T00:20:18.907Z,95514.61
2018-12-23T00:22:48.407Z,95520.55
2018-12-23T00:25:18.202Z,95520.82
2018-12-23T00:27:47.724Z,95522.71
2018-12-23T00:30:17.287Z,95531.70
2018-12-23T00:32:46.978Z,95525.59
2018-12-23T00:35:20.589Z,95536.22
2018-12-23T00:37:46.444Z,95543.31
2018-12-23T00:40:16.044Z,95535.31
2018-12-23T00:42:45.586Z,95530.48
2018-12-23T00:45:15.035Z,95533.41
2018-12-23T00:47:44.733Z,95525.48
2018-12-23T00:50:14.402Z,95529.91
2018-12-23T00:52:44.102Z,95528.06
2018-12-23T00:55:14.369Z,95540.03
2018-12-23T00:57:43.929Z,95544.32
2018-12-23T01:00:13.499Z,95553.35
2018-12-23T01:02:42.988Z,95558.52
2018-12-23T01:05:12.865Z,95552.72
2018-12-23T01:07:42.579Z,95550.42
2018-12-23T01:10:12.264Z,95548.45
2018-12-23T01:12:42.007Z,95540.70
2018-12-23T01:15:11.820Z,95551.01
2018-12-23T01:17:41.553Z,95554.81
2018-12-23T01:20:11.137Z,95552.66
2018-12-23T01:22:40.639Z,95546.41
2018-12-23T01:25:10.557Z,95548.70
2018-12-23T01:27:39.989Z,95546.64
2018-12-23T01:30:09.737Z,95546.19
2018-12-23T01:32:39.088Z,95550.70
2018-12-23T01:35:08.593Z,95547.92
2018-12-23T01:37:38.653Z,95549.64
2018-12-23T01:40:08.380Z,95561.86
2018-12-23T01:42:38.048Z,95556.71
2018-12-23T01:45:07.681Z,95561.30
2018-12-23T01:47:37.535Z,95561.72
2018-12-23T01:50:07.248Z,95558.25
2018-12-23T01:52:36.955Z,95557.89
2018-12-23T01:55:07.480Z,95553.81
2018-12-23T01:57:37.094Z,95542.09
2018-12-23T02:00:07.162Z,95545.33
2018-12-23T02:02:37.118Z,95545.00
2018-12-23T02:05:06.917Z,95542.75
2018-12-23T02:07:36.354Z,95544.39
2018-12-23T02:10:06.340Z,95543.28
2018-12-23T02:12:36.176Z,95551.16
2018-12-23T02:15:06.579Z,95549.10
2018-12-23T02:17:36.354Z,95552.97
2018-12-23T02:20:06.261Z,95553.48
2018-12-23T02:22:35.836Z,95556.43
2018-12-23T02:25:05.997Z,95565.13
2018-12-23T02:27:35.668Z,95564.71
2018-12-23T02:30:05.596Z,95569.25
2018-12-23T02:32:35.451Z,95568.58
2018-12-23T02:35:05.212Z,95575.47
2018-12-23T02:37:34.825Z,95568.13
2018-12-23T02:40:04.854Z,95573.27
2018-12-23T02:42:34.336Z,95581.16
2018-12-23T02:45:03.905Z,95576.58
2018-12-23T02:47:33.852Z,95590.47
2018-12-23T02:50:03.545Z,95573.63
2018-12-23T02:52:33.083Z,95581.08
2018-12-23T02:55:03.135Z,95572.73
2018-12-23T02:57:32.743Z,95564.77
2018-12-23T03:00:02.330Z,95557.02
2018-12-23T03:02:32.157Z,95555.73
2018-12-23T03:05:02.468Z,95549.23
2018-12-23T03:07:32.091Z,95533.02
2018-12-23T03:10:01.605Z,95535.23
2018-12-23T03:12:31.187Z,95536.66
2018-12-23T03:15:00.897Z,95526.17
2018-12-23T03:17:30.399Z,95523.58
2018-12-23T03:19:59.875Z,95511.83
2018-12-23T03:22:29.288Z,95500.59
2018-12-23T03:24:59.042Z,95498.63
2018-12-23T03:27:28.826Z,95485.62
2018-12-23T03:29:58.633Z,95485.24
2018-12-23T03:32:28.626Z,95469.37
2018-12-23T03:34:58.368Z,95462.75
2018-12-23T03:37:28.081Z,95454.45
2018-12-23T03:39:57.835Z,95452.63
2018-12-23T03:42:27.525Z,95459.76
2018-12-23T03:44:56.994Z,95476.23
2018-12-23T03:47:26.642Z,95473.17
2018-12-23T03:49:56.219Z,95481.45
2018-12-23T03:52:25.817Z,95494.95
2018-12-23T03:54:55.566Z,95511.96
2018-12-23T03:57:24.860Z,95527.11
2018-12-23T03:59:54.560Z,95543.33
2018-12-23T04:02:24.282Z,95549.97
2018-12-23T04:04:53.963Z,95550.98
2018-12-23T04:07:23.309Z,95550.73
2018-12-23T04:09:52.963Z,95557.59
2018-12-23T04:12:22.307Z,95556.69
2018-12-23T04:14:51.890Z,95559.40
2018-12-23T04:17:21.593Z,95546.95
2018-12-23T04:19:51.104Z,95546.50
2018-12-23T04:22:20.505Z,95537.17
2018-12-23T04:24:50.247Z,95537.28
2018-12-23T04:27:19.597Z,95538.69
2018-12-23T04:29:49.335Z,95547.31
2018-12-23T04:32:19.137Z,95545.48
2018-12-23T04:34:48.796Z,95550.22
2018-12-23T04:37:18.269Z,95547.45
2018-12-23T04:39:48.257Z,95553.56
2018-12-23T04:42:17.819Z,95546.00
2018-12-23T04:44:47.529Z,95550.36
2018-12-23T04:47:17.020Z,95562.66
2018-12-23T04:49:46.736Z,95567.39
2018-12-23T04:52:16.325Z,95575.27
2018-12-23T04:54:45.873Z,95569.92
2018-12-23T04:57:15.548Z,95571.69
2018-12-23T04:59:45.048Z,95561.23
2018-12-23T05:02:14.791Z,95560.36
2018-12-23T05:04:44.265Z,95570.20
2018-12-23T05:07:13.889Z,95570.78
2018-12-23T05:09:43.739Z,95583.25
2018-12-23T05:12:13.190Z,95591.27
2018-12-23T05:14:44.737Z,95596.27
2018-12-23T05:17:12.843Z,95605.66
2018-12-23T05:19:42.313Z,95588.19
2018-12-23T05:22:11.819Z,95594.05
2018-12-23T05:24:41.675Z,95593.61
2018-12-23T05:27:11.416Z,95588.37
2018-12-23T05:29:41.170Z,95583.17
2018-12-23T05:32:10.724Z,95588.78
2018-12-23T05:34:40.209Z,95575.15
2018-12-23T05:37:09.799Z,95569.47
2018-12-23T05:39:39.832Z,95573.34
2018-12-23T05:42:09.411Z,95574.05
2018-12-23T05:44:39.303Z,95574.48
2018-12-23T05:47:08.819Z,95580.41
2018-12-23T05:49:38.211Z,95593.94
2018-12-23T05:52:07.665Z,95599.20
2018-12-23T05:54:37.267Z,95604.41
2018-12-23T05:57:06.633Z,95614.00
2018-12-23T05:59:36.222Z,95627.02
2018-12-23T06:02:06.059Z,95625.96
2018-12-23T06:04:35.783Z,95617.38
2018-12-23T06:07:05.296Z,95620.21
2018-12-23T06:09:35.045Z,95619.36
2018-12-23T06:12:04.707Z,95625.70
2018-12-23T06:14:34.386Z,95625.08
2018-12-23T06:17:03.863Z,95637.67
2018-12-23T06:19:33.597Z,95629.42
2018-12-23T06:22:03.029Z,95638.59
2018-12-23T06:24:32.707Z,95643.88
2018-12-23T06:27:02.371Z,95639.89
2018-12-23T06:29:32.059Z,95643.25
2018-12-23T06:32:02.133Z,95653.02
2018-12-23T06:34:31.812Z,95655.45
2018-12-23T06:37:09.725Z,95656.03
2018-12-23T06:39:30.883Z,95652.43
2018-12-23T06:42:00.304Z,95658.62
2018-12-23T06:44:30.152Z,95650.03
2018-12-23T06:46:59.711Z,95651.66
2018-12-23T06:49:29.341Z,95651.58
2018-12-23T06:51:59.181Z,95653.80
2018-12-23T06:54:28.868Z,95653.90
2018-12-23T06:56:58.560Z,95655.45
2018-12-23T06:59:28.470Z,95668.75
2018-12-23T07:01:58.107Z,95673.21
2018-12-23T07:04:27.954Z,95682.76
2018-12-23T07:06:57.817Z,95685.92
2018-12-23T07:09:27.575Z,95706.63
2018-12-23T07:11:57.169Z,95707.81
2018-12-23T07:14:27.086Z,95702.05
2018-12-23T07:16:56.718Z,95692.84
2018-12-23T07:19:26.391Z,95687.95
2018-12-23T07:21:55.870Z,95692.88
2018-12-23T07:24:26.063Z,95685.74
2018-12-23T07:26:55.898Z,95695.70
2018-12-23T07:29:25.704Z,95683.66
2018-12-23T07:31:55.305Z,95692.11
2018-12-23T07:34:24.663Z,95686.27
2018-12-23T07:36:54.873Z,95689.80
2018-12-23T07:39:24.363Z,95692.61
2018-12-23T07:41:53.797Z,95687.91
2018-12-23T07:44:23.228Z,95676.55
2018-12-23T07:46:52.907Z,95678.44
2018-12-23T07:49:22.347Z,95668.50
2018-12-23T07:51:52.356Z,95659.12
2018-12-23T07:54:21.703Z,95667.03
2018-12-23T07:56:51.430Z,95664.79
2018-12-23T07:59:20.918Z,95674.61
2018-12-23T08:01:50.267Z,95673.59
2018-12-23T08:04:19.683Z,95671.63
2018-12-23T08:06:49.538Z,95678.19
2018-12-23T08:09:19.045Z,95683.64
2018-12-23T08:11:48.444Z,95661.45
2018-12-23T08:14:18.002Z,95687.06
2018-12-23T08:16:47.684Z,95681.02
2018-12-23T08:19:17.487Z,95676.73
2018-12-23T08:21:47.099Z,95682.23
2018-12-23T08:24:17.120Z,95689.11
2018-12-23T08:26:46.690Z,95697.95
2018-12-23T08:29:16.277Z,95694.86
2018-12-23T08:31:45.965Z,95697.16
2018-12-23T08:34:15.539Z,95694.20
2018-12-23T08:36:45.167Z,95692.23
2018-12-23T08:39:15.103Z,95686.44
2018-12-23T08:41:44.572Z,95683.47
2018-12-23T08:44:14.071Z,95687.20
2018-12-23T08:46:44.031Z,95695.22
2018-12-23T08:49:16.683Z,95695.67
2018-12-23T08:51:46.408Z,95700.38
2018-12-23T08:54:16.146Z,95696.98
2018-12-23T08:56:45.810Z,95701.75
2018-12-23T08:59:15.537Z,95703.82
2018-12-23T09:01:45.131Z,95693.55
2018-12-23T09:04:14.728Z,95700.98
2018-12-23T09:06:44.680Z,95693.44
2018-12-23T09:09:14.107Z,95692.48
2018-12-23T09:11:43.778Z,95688.73
2018-12-23T09:14:13.530Z,95686.14
2018-12-23T09:16:42.871Z,95673.03
2018-12-23T09:19:12.558Z,95651.36
2018-12-23T09:21:42.290Z,95657.59
2018-12-23T09:24:11.908Z,95664.39
2018-12-23T09:26:41.907Z,95666.53
2018-12-23T09:29:11.867Z,95660.23
2018-12-23T09:31:41.567Z,95649.30
2018-12-23T09:34:11.288Z,95655.83
2018-12-23T09:36:40.737Z,95655.45
2018-12-23T09:39:10.583Z,95661.27
2018-12-23T09:41:40.384Z,95665.67
2018-12-23T09:44:10.027Z,95656.73
2018-12-23T09:46:39.670Z,95656.33
2018-12-23T09:49:09.171Z,95652.02
2018-12-23T09:51:38.742Z,95645.80
2018-12-23T09:54:08.370Z,95641.09
2018-12-23T09:56:37.853Z,95647.41
2018-12-23T09:59:07.504Z,95647.18
2018-12-23T10:01:37.079Z,95651.25
2018-12-23T10:04:06.656Z,95650.77
2018-12-23T10:06:36.265Z,95639.59
2018-12-23T10:09:06.936Z,95639.00
2018-12-23T10:11:36.963Z,95641.11
2018-12-23T10:14:06.432Z,95644.51
2018-12-23T10:16:35.935Z,95642.37
2018-12-23T10:19:05.842Z,95635.38
2018-12-23T10:21:35.451Z,95625.95
2018-12-23T10:24:05.181Z,95612.03
2018-12-23T10:26:35.055Z,95611.06
2018-12-23T10:29:04.700Z,95621.61
2018-12-23T10:31:34.251Z,95626.02
2018-12-23T10:34:03.836Z,95619.55
2018-12-23T10:36:33.575Z,95617.00
2018-12-23T10:39:03.201Z,95616.94
2018-12-23T10:41:32.779Z,95618.81
2018-12-23T10:44:02.236Z,95616.89
2018-12-23T10:46:31.872Z,95620.88
2018-12-23T10:49:01.891Z,95626.95
2018-12-23T10:51:31.598Z,95622.27
2018-12-23T10:54:01.391Z,95622.56
2018-12-23T10:56:31.032Z,95610.23
2018-12-23T10:59:00.600Z,95614.25
2018-12-23T11:01:30.221Z,95612.06
2018-12-23T11:03:59.813Z,95608.19
2018-12-23T11:06:29.321Z,95609.82
2018-12-23T11:08:59.139Z,95614.25
2018-12-23T11:11:28.563Z,95610.02
2018-12-23T11:13:58.064Z,95618.36
2018-12-23T11:16:27.750Z,95619.91
2018-12-23T11:18:57.681Z,95623.31
2018-12-23T11:21:27.494Z,95637.08
2018-12-23T11:23:56.979Z,95632.70
2018-12-23T11:26:26.622Z,95626.95
2018-12-23T11:28:56.311Z,95629.41
2018-12-23T11:31:25.948Z,95624.11
2018-12-23T11:33:55.397Z,95623.44
2018-12-23T11:36:25.054Z,95625.70
2018-12-23T11:38:54.678Z,95626.35
2018-12-23T11:41:26.542Z,95620.97
2018-12-23T11:43:55.887Z,95616.94
2018-12-23T11:46:25.518Z,95641.23
2018-12-23T11:48:55.143Z,95641.00
2018-12-23T11:51:24.529Z,95635.98
2018-12-23T11:53:54.127Z,95642.31
2018-12-23T11:56:23.489Z,95638.64
2018-12-23T11:58:53.310Z,95647.73
2018-12-23T12:01:22.746Z,95641.84
2018-12-23T12:03:52.339Z,95642.37
2018-12-23T12:06:21.743Z,95638.26
2018-12-23T12:08:51.390Z,95637.97
2018-12-23T12:11:20.832Z,95640.77
2018-12-23T12:13:50.394Z,95651.13
2018-12-23T12:16:19.987Z,95643.64
2018-12-23T12:18:49.863Z,95644.02
2018-12-23T12:21:19.519Z,95650.75
2018-12-23T12:23:49.028Z,95644.19
2018-12-23T12:26:18.786Z,95648.20
2018-12-23T12:28:48.345Z,95673.45
2018-12-23T12:31:17.818Z,95677.19
2018-12-23T12:33:47.363Z,95664.72
2018-12-23T12:36:16.982Z,95673.77
2018-12-23T12:38:52.166Z,95668.47
2018-12-23T12:41:17.299Z,95675.86
2018-12-23T12:43:46.921Z,95686.67
2018-12-23T12:46:16.810Z,95701.00
2018-12-23T12:48:46.804Z,95717.28
2018-12-23T12:51:16.344Z,95723.83
2018-12-23T12:53:46.072Z,95725.52
2018-12-23T12:56:15.561Z,95724.20
2018-12-23T12:58:45.063Z,95710.72
2018-12-23T13:01:14.712Z,95721.66
2018-12-23T13:03:44.411Z,95711.43
2018-12-23T13:06:14.141Z,95699.98
2018-12-23T13:08:43.910Z,95712.89
2018-12-23T13:11:13.675Z,95722.09
2018-12-23T13:13:43.343Z,95723.00
2018-12-23T13:16:13.057Z,95733.61
2018-12-23T13:18:42.576Z,95729.23
2018-12-23T13:21:12.063Z,95725.41
2018-12-23T13:23:41.671Z,95720.10
2018-12-23T13:26:11.210Z,95723.00
2018-12-23T13:28:40.691Z,95722.07
2018-12-23T13:31:10.399Z,95720.56
2018-12-23T13:33:40.300Z,95725.77
2018-12-23T13:36:09.997Z,95709.53
2018-12-23T13:38:39.531Z,95725.59
2018-12-23T13:41:16.643Z,95726.77
2018-12-23T13:45:59.461Z,95721.93
2018-12-23T13:48:47.115Z,95730.25
2018-12-23T13:52:00.445Z,95719.55
2018-12-23T13:56:44.481Z,95727.64
2018-12-23T13:59:22.836Z,95746.34
2018-12-23T14:03:03.784Z,95764.02
2018-12-23T14:05:59.844Z,95768.30
2018-12-23T14:08:44.671Z,95763.16
2018-12-23T14:12:19.227Z,95775.89
2018-12-23T14:14:48.689Z,95756.61
2018-12-23T14:17:18.093Z,95757.45
2018-12-23T14:19:47.496Z,95756.13
2018-12-23T14:22:17.136Z,95751.96
2018-12-23T14:24:46.607Z,95767.03
2018-12-23T14:27:16.259Z,95760.52
2018-12-23T14:29:46.084Z,95758.76
2018-12-23T14:32:15.706Z,95758.91
2018-12-23T14:34:45.560Z,95759.22
2018-12-23T14:37:15.308Z,95755.06
2018-12-23T14:39:45.027Z,95746.29
2018-12-23T14:42:15.802Z,95747.08
2018-12-23T14:44:45.187Z,95748.41
2018-12-23T14:47:15.141Z,95748.72
2018-12-23T14:49:44.403Z,95743.70
2018-12-23T14:52:14.313Z,95745.94
2018-12-23T14:54:43.982Z,95754.84
2018-12-23T14:57:13.439Z,95741.78
2018-12-23T14:59:43.922Z,95747.15
2018-12-23T15:02:13.600Z,95746.22
2018-12-23T15:04:47.347Z,95736.51
2018-12-23T15:07:17.069Z,95746.90
2018-12-23T15:09:46.546Z,95739.23
2018-12-23T15:12:15.962Z,95744.41
2018-12-23T15:14:45.431Z,95747.45
2018-12-23T15:17:15.161Z,95751.14
2018-12-23T15:19:44.984Z,95755.42
2018-12-23T15:22:14.465Z,95759.83
2018-12-23T15:24:44.181Z,95754.87
2018-12-23T15:27:14.125Z,95755.89
2018-12-23T15:29:43.754Z,95759.20
2018-12-23T15:32:13.510Z,95766.98
2018-12-23T15:34:43.363Z,95766.52
2018-12-23T15:37:13.029Z,95771.84
2018-12-23T15:39:43.003Z,95780.84
2018-12-23T15:42:12.710Z,95783.13
2018-12-23T15:44:42.490Z,95786.05
2018-12-23T15:47:12.137Z,95784.44
2018-12-23T15:49:41.746Z,95787.90
2018-12-23T15:52:11.205Z,95788.49
2018-12-23T15:54:46.210Z,95789.16
2018-12-23T15:57:10.575Z,95786.83
2018-12-23T15:59:39.996Z,95791.28
2018-12-23T16:02:09.751Z,95792.30
2018-12-23T16:04:39.790Z,95791.88
2018-12-23T16:07:09.475Z,95792.20
2018-12-23T16:09:39.062Z,95794.32
2018-12-23T16:12:10.354Z,95787.15
2018-12-23T16:14:42.082Z,95789.58
2018-12-23T16:17:11.789Z,95787.30
2018-12-23T16:19:42.110Z,95793.28
2018-12-23T16:22:11.506Z,95792.09
2018-12-23T16:24:46.849Z,95799.02
2018-12-23T16:27:16.459Z,95803.73
2018-12-23T16:29:46.160Z,95814.25
2018-12-23T16:32:16.227Z,95813.16
2018-12-23T16:34:45.790Z,95814.95
2018-12-23T16:37:15.524Z,95806.94
2018-12-23T16:39:45.451Z,95808.13
2018-12-23T16:42:15.048Z,95814.67
2018-12-23T16:44:45.066Z,95813.16
2018-12-23T16:47:14.594Z,95811.38
2018-12-23T16:49:44.264Z,95807.50
2018-12-23T16:52:13.794Z,95810.88
2018-12-23T16:54:43.623Z,95819.59
2018-12-23T16:57:13.321Z,95820.58
2018-12-23T16:59:42.852Z,95819.77
2018-12-23T17:02:12.508Z,95816.58
2018-12-23T17:04:42.128Z,95814.99
2018-12-23T17:07:11.734Z,95816.47
2018-12-23T17:09:41.772Z,95812.46
2018-12-23T17:12:11.325Z,95805.36
2018-12-23T17:14:41.045Z,95802.33
2018-12-23T17:17:10.730Z,95805.25
2018-12-23T17:19:40.638Z,95801.73
2018-12-23T17:22:10.132Z,95804.94
2018-12-23T17:24:39.810Z,95811.16
2018-12-23T17:27:09.288Z,95805.91
2018-12-23T17:29:39.257Z,95798.31
2018-12-23T17:32:08.683Z,95801.73
2018-12-23T17:34:38.267Z,95807.33
2018-12-23T17:37:08.051Z,95814.36
2018-12-23T17:39:37.790Z,95813.65
2018-12-23T17:42:07.378Z,95823.75
2018-12-23T17:44:37.410Z,95821.39
2018-12-23T17:47:06.901Z,95827.09
2018-12-23T17:49:36.616Z,95814.67
2018-12-23T17:52:06.348Z,95812.56
2018-12-23T17:54:36.010Z,95812.50
2018-12-23T17:57:05.532Z,95806.66
2018-12-23T17:59:35.165Z,95811.16
2018-12-23T18:02:04.844Z,95810.45
2018-12-23T18:04:34.577Z,95800.36
2018-12-23T18:07:05.178Z,95800.36
2018-12-23T18:09:34.685Z,95774.59
2018-12-23T18:12:04.627Z,95806.16
2018-12-23T18:14:34.269Z,95806.16
2018-12-23T18:17:03.865Z,95806.59
2018-12-23T18:19:33.671Z,95799.98
2018-12-23T18:22:03.591Z,95796.36
2018-12-23T18:24:33.044Z,95806.34
2018-12-23T18:27:02.696Z,95794.23
2018-12-23T18:29:32.514Z,95789.25
2018-12-23T18:32:02.221Z,95787.88
2018-12-23T18:34:31.977Z,95786.66
2018-12-23T18:37:01.555Z,95781.16
2018-12-23T18:39:31.015Z,95783.17
2018-12-23T18:42:00.743Z,95780.39
2018-12-23T18:44:30.560Z,95790.91
2018-12-23T18:47:00.282Z,95795.93
2018-12-23T18:49:30.551Z,95796.42
2018-12-23T18:52:00.063Z,95791.02
2018-12-23T18:54:29.841Z,95792.16
2018-12-23T18:57:04.835Z,95799.39
2018-12-23T18:59:38.098Z,95802.50
2018-12-23T19:02:11.023Z,95799.88
2018-12-23T19:04:40.861Z,95795.97
2018-12-23T19:07:10.272Z,95793.15
2018-12-23T19:09:49.609Z,95789.83
2018-12-23T19:12:49.778Z,95790.69
2018-12-23T19:16:39.854Z,95785.98
2018-12-23T19:21:29.460Z,95785.56
2018-12-23T19:24:26.394Z,95776.04
2018-12-23T19:27:17.797Z,95780.70
2018-12-23T19:30:07.366Z,95774.95
2018-12-23T19:33:07.384Z,95771.94
2018-12-23T19:37:52.163Z,95775.50
2018-12-23T19:41:38.356Z,95768.89
2018-12-23T19:44:18.722Z,95780.32
2018-12-23T19:47:11.933Z,95779.27
2018-12-23T19:49:51.853Z,95770.80
2018-12-23T19:54:39.827Z,95778.87
2018-12-23T19:57:40.735Z,95774.73
2018-12-23T20:00:20.000Z,95787.38
2018-12-23T20:03:01.966Z,95783.22
2018-12-23T20:06:58.160Z,95780.45
2018-12-23T20:09:43.219Z,95778.97
2018-12-23T20:12:38.752Z,95766.45
2018-12-23T20:15:23.158Z,95767.88
2018-12-23T20:18:24.532Z,95772.52
2018-12-23T20:21:38.757Z,95785.73
2018-12-23T20:24:52.604Z,95772.36
2018-12-23T20:28:07.229Z,95763.55
2018-12-23T20:30:54.347Z,95760.89
2018-12-23T20:34:40.422Z,95757.14
2018-12-23T20:37:31.706Z,95755.84
2018-12-23T20:40:12.164Z,95751.67
2018-12-23T20:42:51.295Z,95762.77
2018-12-23T20:46:37.665Z,95755.75
2018-12-23T20:50:03.359Z,95760.28
2018-12-23T20:53:50.728Z,95759.86
2018-12-23T20:57:26.376Z,95763.77
2018-12-23T21:00:16.670Z,95764.39
2018-12-23T21:05:05.874Z,95757.09
2018-12-23T21:07:52.159Z,95757.45
2018-12-23T21:13:47.128Z,95756.22
2018-12-23T21:16:32.481Z,95763.69
2018-12-23T21:20:10.938Z,95753.47
2018-12-23T21:22:54.439Z,95745.08
2018-12-23T21:26:44.519Z,95760.19
2018-12-23T21:29:55.616Z,95753.19
2018-12-23T21:32:34.969Z,95750.86
2018-12-23T21:35:17.411Z,95747.03
2018-12-23T21:38:15.714Z,95746.78
2018-12-23T21:41:56.054Z,95735.72
2018-12-23T21:45:40.433Z,95738.26
2018-12-23T21:48:35.760Z,95753.88
2018-12-23T21:52:15.505Z,95743.53
2018-12-23T21:55:37.255Z,95741.14
2018-12-23T22:00:19.495Z,95733.95
2018-12-23T22:02:59.368Z,95729.02
2018-12-23T22:06:45.836Z,95723.53
2018-12-23T22:09:32.026Z,95735.35
2018-12-23T22:14:10.063Z,95731.41
2018-12-23T22:16:39.804Z,95738.03
2018-12-23T22:19:09.468Z,95732.19
2018-12-23T22:21:39.203Z,95733.61
2018-12-23T22:24:08.779Z,95731.03
2018-12-23T22:26:38.263Z,95730.22
2018-12-23T22:29:07.849Z,95726.14
2018-12-23T22:31:38.592Z,95727.92
2018-12-23T22:34:08.127Z,95725.17
2018-12-23T22:36:37.692Z,95717.67
2018-12-23T22:39:08.199Z,95717.75
2018-12-23T22:41:41.289Z,95708.40
2018-12-23T22:44:07.415Z,95714.81
2018-12-23T22:46:36.787Z,95710.38
2018-12-23T22:49:06.608Z,95705.41
2018-12-23T22:51:36.137Z,95697.09
2018-12-23T22:54:05.605Z,95697.95
2018-12-23T22:56:35.312Z,95695.25
2018-12-23T22:59:05.116Z,95692.87
2018-12-23T23:01:34.508Z,95688.73
2018-12-23T23:04:04.275Z,95692.94
2018-12-23T23:06:34.295Z,95686.81
2018-12-23T23:09:04.544Z,95676.23
2018-12-23T23:11:34.849Z,95679.34
2018-12-23T23:14:04.628Z,95674.73
2018-12-23T23:16:34.802Z,95663.89
2018-12-23T23:19:04.225Z,95677.38
2018-12-23T23:21:33.656Z,95667.83
2018-12-23T23:24:03.379Z,95668.83
2018-12-23T23:26:33.003Z,95666.83
2018-12-23T23:29:02.354Z,95661.23
2018-12-23T23:31:31.724Z,95656.98
2018-12-23T23:34:01.522Z,95651.56
2018-12-23T23:36:31.014Z,95654.06
2018-12-23T23:39:00.709Z,95649.86
2018-12-23T23:41:30.280Z,95646.80
2018-12-23T23:44:02.225Z,95644.03
2018-12-23T23:46:29.911Z,95648.13
2018-12-23T23:48:59.341Z,95648.57
2018-12-23T23:51:29.052Z,95648.61
2018-12-23T23:53:59.129Z,95639.63
2018-12-23T23:56:28.591Z,95636.70
2018-12-23T23:58:58.070Z,95630.08
